createdAt,value
2018-05-24T00:02:01.118Z,19.90
2018-05-24T00:04:28.582Z,19.90
2018-05-24T00:06:56.074Z,19.90
2018-05-24T00:09:23.557Z,19.90
2018-05-24T00:11:51.800Z,19.80
2018-05-24T00:14:19.271Z,19.80
2018-05-24T00:16:47.514Z,19.90
2018-05-24T00:19:15.012Z,19.90
2018-05-24T00:21:43.281Z,19.80
2018-05-24T00:24:10.761Z,19.80
2018-05-24T00:26:38.273Z,19.80
2018-05-24T00:29:05.818Z,19.70
2018-05-24T00:31:33.334Z,19.70
2018-05-24T00:34:00.837Z,19.60
2018-05-24T00:36:28.302Z,19.60
2018-05-24T00:38:56.017Z,19.60
2018-05-24T00:41:23.602Z,19.50
2018-05-24T00:43:51.092Z,19.60
2018-05-24T00:46:18.593Z,19.50
2018-05-24T00:48:46.101Z,19.50
2018-05-24T00:51:13.573Z,19.40
2018-05-24T00:53:41.852Z,19.40
2018-05-24T00:56:09.333Z,19.30
2018-05-24T00:58:37.589Z,19.40
2018-05-24T01:01:05.112Z,19.30
2018-05-24T01:03:32.629Z,19.40
2018-05-24T01:06:00.120Z,19.40
2018-05-24T01:08:27.593Z,19.30
2018-05-24T01:10:55.091Z,19.30
2018-05-24T01:13:23.410Z,19.20
2018-05-24T01:15:50.916Z,19.20
2018-05-24T01:18:18.424Z,19.30
2018-05-24T01:20:45.904Z,19.30
2018-05-24T01:23:13.584Z,19.20
2018-05-24T01:25:41.064Z,19.30
2018-05-24T01:28:09.298Z,19.30
2018-05-24T01:30:36.786Z,19.30
2018-05-24T01:33:04.256Z,19.40
2018-05-24T01:35:32.531Z,19.30
2018-05-24T01:38:00.001Z,19.30
2018-05-24T01:40:27.541Z,19.40
2018-05-24T01:42:55.785Z,19.50
2018-05-24T01:45:23.258Z,19.50
2018-05-24T01:47:50.829Z,19.40
2018-05-24T01:50:19.084Z,19.30
2018-05-24T01:52:46.561Z,19.30
2018-05-24T01:55:14.836Z,19.30
2018-05-24T01:57:43.082Z,19.30
2018-05-24T02:00:10.720Z,19.30
2018-05-24T02:02:38.227Z,19.30
2018-05-24T02:05:05.695Z,19.30
2018-05-24T02:07:33.959Z,19.20
2018-05-24T02:10:01.487Z,19.20
2018-05-24T02:12:29.058Z,19.30
2018-05-24T02:14:56.540Z,19.30
2018-05-24T02:17:24.041Z,19.30
2018-05-24T02:19:51.549Z,19.30
2018-05-24T02:22:19.035Z,19.40
2018-05-24T02:24:47.330Z,19.30
2018-05-24T02:27:14.797Z,19.30
2018-05-24T02:29:42.372Z,19.40
2018-05-24T02:32:09.851Z,19.30
2018-05-24T02:34:37.473Z,19.40
2018-05-24T02:37:05.007Z,19.40
2018-05-24T02:39:32.748Z,19.40
2018-05-24T02:42:00.969Z,19.40
2018-05-24T02:44:28.475Z,19.30
2018-05-24T02:46:55.954Z,19.40
2018-05-24T02:49:23.436Z,19.40
2018-05-24T02:51:51.305Z,19.40
2018-05-24T02:54:18.768Z,19.40
2018-05-24T02:56:46.266Z,19.30
2018-05-24T02:59:13.736Z,19.30
2018-05-24T03:01:42.115Z,19.30
2018-05-24T03:04:09.592Z,19.30
2018-05-24T03:06:37.044Z,19.30
2018-05-24T03:09:05.486Z,19.30
2018-05-24T03:11:32.976Z,19.30
2018-05-24T03:14:01.287Z,19.00
2018-05-24T03:16:28.904Z,19.00
2018-05-24T03:18:57.196Z,18.60
2018-05-24T03:21:25.425Z,18.40
2018-05-24T03:23:52.900Z,18.40
2018-05-24T03:26:21.190Z,18.20
2018-05-24T03:28:48.685Z,18.20
2018-05-24T03:31:16.243Z,18.20
2018-05-24T03:33:43.712Z,18.20
2018-05-24T03:36:11.192Z,18.10
2018-05-24T03:38:38.680Z,18.10
2018-05-24T03:41:06.948Z,18.10
2018-05-24T03:43:35.203Z,18.20
2018-05-24T03:46:02.680Z,18.20
2018-05-24T03:48:30.918Z,18.10
2018-05-24T03:50:58.392Z,18.00
2018-05-24T03:53:25.858Z,18.00
2018-05-24T03:55:53.340Z,18.00
2018-05-24T03:58:21.597Z,18.00
2018-05-24T04:01:13.384Z,18.00
2018-05-24T04:03:49.700Z,18.00
2018-05-24T04:06:18.117Z,17.90
2018-05-24T04:08:45.778Z,17.90
2018-05-24T04:11:13.281Z,18.00
2018-05-24T04:13:40.771Z,18.00
2018-05-24T04:16:08.257Z,18.10
2018-05-24T04:18:35.943Z,18.10
2018-05-24T04:21:03.419Z,18.10
2018-05-24T04:23:32.000Z,18.00
2018-05-24T04:25:59.631Z,18.00
2018-05-24T04:28:27.137Z,17.90
2018-05-24T04:30:55.396Z,17.70
2018-05-24T04:33:23.876Z,17.80
2018-05-24T04:35:51.387Z,17.80
2018-05-24T04:38:18.877Z,17.80
2018-05-24T04:40:46.450Z,17.80
2018-05-24T04:43:13.993Z,17.70
2018-05-24T04:45:41.469Z,17.70
2018-05-24T04:48:08.943Z,17.70
2018-05-24T04:50:37.188Z,17.60
2018-05-24T04:53:04.663Z,17.60
2018-05-24T04:55:32.126Z,17.50
2018-05-24T04:58:00.392Z,17.50
2018-05-24T05:00:27.861Z,17.50
2018-05-24T05:02:56.112Z,17.50
2018-05-24T05:05:23.582Z,17.50
2018-05-24T05:07:51.037Z,17.20
2018-05-24T05:10:19.280Z,17.10
2018-05-24T05:12:46.741Z,17.00
2018-05-24T05:15:14.223Z,17.10
2018-05-24T05:17:41.939Z,17.10
2018-05-24T05:20:09.425Z,17.00
2018-05-24T05:22:36.898Z,17.10
2018-05-24T05:25:04.406Z,17.00
2018-05-24T05:27:31.846Z,17.00
2018-05-24T05:29:59.316Z,17.00
2018-05-24T05:32:26.793Z,17.00
2018-05-24T05:34:54.257Z,16.80
2018-05-24T05:37:21.740Z,16.90
2018-05-24T05:39:49.967Z,16.80
2018-05-24T05:42:17.593Z,16.80
2018-05-24T05:44:45.911Z,16.70
2018-05-24T05:47:13.308Z,16.70
2018-05-24T05:49:41.877Z,16.80
2018-05-24T05:52:09.460Z,16.70
2018-05-24T05:54:36.892Z,16.70
2018-05-24T05:57:04.389Z,16.70
2018-05-24T05:59:32.639Z,16.80
2018-05-24T06:02:01.015Z,16.60
2018-05-24T06:04:28.360Z,16.60
2018-05-24T06:06:55.891Z,16.60
2018-05-24T06:09:23.413Z,16.60
2018-05-24T06:11:51.774Z,16.40
2018-05-24T06:14:20.027Z,16.40
2018-05-24T06:16:47.492Z,16.40
2018-05-24T06:19:15.046Z,16.50
2018-05-24T06:21:42.583Z,16.60
2018-05-24T06:24:10.057Z,16.50
2018-05-24T06:26:37.550Z,16.50
2018-05-24T06:29:05.830Z,16.60
2018-05-24T06:31:34.072Z,16.70
2018-05-24T06:34:01.605Z,16.70
2018-05-24T06:36:29.090Z,16.70
2018-05-24T06:38:56.597Z,16.80
2018-05-24T06:41:24.079Z,16.80
2018-05-24T06:43:51.579Z,16.80
2018-05-24T06:46:19.078Z,16.90
2018-05-24T06:48:47.375Z,16.70
2018-05-24T06:51:14.894Z,16.70
2018-05-24T06:53:42.484Z,16.70
2018-05-24T06:56:10.007Z,16.80
2018-05-24T06:58:38.312Z,16.80
2018-05-24T07:01:05.835Z,16.80
2018-05-24T07:03:34.069Z,16.80
2018-05-24T07:06:01.660Z,16.80
2018-05-24T07:08:29.025Z,16.80
2018-05-24T07:10:57.330Z,17.00
2018-05-24T07:13:24.743Z,17.00
2018-05-24T07:15:52.236Z,17.10
2018-05-24T07:18:19.713Z,17.20
2018-05-24T07:20:47.187Z,17.20
2018-05-24T07:23:14.684Z,17.30
2018-05-24T07:25:42.927Z,17.20
2018-05-24T07:28:10.416Z,17.20
2018-05-24T07:30:37.911Z,17.20
2018-05-24T07:33:05.392Z,17.20
2018-05-24T07:35:32.870Z,17.20
2018-05-24T07:38:00.850Z,17.20
2018-05-24T07:40:29.110Z,17.30
2018-05-24T07:42:56.584Z,17.30
2018-05-24T07:45:24.061Z,17.50
2018-05-24T07:47:52.294Z,17.60
2018-05-24T07:50:20.541Z,17.80
2018-05-24T07:52:48.228Z,17.70
2018-05-24T07:55:15.699Z,17.90
2018-05-24T07:57:43.184Z,18.00
2018-05-24T08:00:11.426Z,18.20
2018-05-24T08:02:38.917Z,18.20
2018-05-24T08:05:07.310Z,18.20
2018-05-24T08:07:34.797Z,18.20
2018-05-24T08:10:02.281Z,18.30
2018-05-24T08:12:29.779Z,18.40
2018-05-24T08:14:58.012Z,18.40
2018-05-24T08:17:26.259Z,18.50
2018-05-24T08:19:53.740Z,18.40
2018-05-24T08:22:21.229Z,18.50
2018-05-24T08:24:49.784Z,18.50
2018-05-24T08:27:17.265Z,18.40
2018-05-24T08:29:44.778Z,18.60
2018-05-24T08:32:12.260Z,18.70
2018-05-24T08:34:39.760Z,18.80
2018-05-24T08:37:07.223Z,18.70
2018-05-24T08:39:34.696Z,18.70
2018-05-24T08:42:02.184Z,18.90
2018-05-24T08:44:30.429Z,19.00
2018-05-24T08:46:57.941Z,18.90
2018-05-24T08:49:25.388Z,18.90
2018-05-24T08:51:54.448Z,19.00
2018-05-24T08:54:21.924Z,18.90
2018-05-24T08:56:49.661Z,19.20
2018-05-24T08:59:17.162Z,19.30
2018-05-24T09:01:45.399Z,19.30
2018-05-24T09:04:12.875Z,19.30
2018-05-24T09:06:40.380Z,19.40
2018-05-24T09:09:07.992Z,19.50
2018-05-24T09:11:35.336Z,19.50
2018-05-24T09:14:02.816Z,19.70
2018-05-24T09:16:31.066Z,19.90
2018-05-24T09:18:58.536Z,19.80
2018-05-24T09:21:26.009Z,19.90
2018-05-24T09:23:54.241Z,20.10
2018-05-24T09:26:21.715Z,20.10
2018-05-24T09:28:49.305Z,20.10
2018-05-24T09:31:16.919Z,20.10
2018-05-24T09:33:44.432Z,20.10
2018-05-24T09:36:12.735Z,20.10
2018-05-24T09:38:40.167Z,20.10
2018-05-24T09:41:08.407Z,20.10
2018-05-24T09:43:35.914Z,20.10
2018-05-24T09:46:04.152Z,20.20
2018-05-24T09:48:31.636Z,20.20
2018-05-24T09:50:59.864Z,20.20
2018-05-24T09:53:27.348Z,20.20
2018-05-24T09:55:56.328Z,20.30
2018-05-24T09:58:23.811Z,20.30
2018-05-24T10:00:52.440Z,20.30
2018-05-24T10:05:54.588Z,20.40
2018-05-24T10:08:22.835Z,20.40
2018-05-24T10:10:50.484Z,20.40
2018-05-24T10:13:17.946Z,20.50
2018-05-24T10:15:46.937Z,20.50
2018-05-24T10:18:14.428Z,20.50
2018-05-24T10:20:42.677Z,20.70
2018-05-24T10:23:10.170Z,20.70
2018-05-24T10:25:38.430Z,20.90
2018-05-24T10:28:05.920Z,20.90
2018-05-24T10:30:33.374Z,21.00
2018-05-24T10:33:00.907Z,21.10
2018-05-24T10:35:29.135Z,21.30
2018-05-24T10:37:56.626Z,21.30
2018-05-24T10:40:24.878Z,21.40
2018-05-24T10:42:52.369Z,21.40
2018-05-24T10:45:19.840Z,21.70
2018-05-24T10:47:48.076Z,22.10
2018-05-24T10:50:15.559Z,22.10
2018-05-24T10:52:43.821Z,22.30
2018-05-24T10:55:11.330Z,22.30
2018-05-24T10:57:38.797Z,22.50
2018-05-24T11:00:06.301Z,22.60
2018-05-24T11:02:33.761Z,22.60
2018-05-24T11:05:02.003Z,22.30
2018-05-24T11:07:29.493Z,22.30
2018-05-24T11:09:57.153Z,22.20
2018-05-24T11:12:24.638Z,22.20
2018-05-24T11:14:52.876Z,21.90
2018-05-24T11:17:20.361Z,21.90
2018-05-24T11:19:48.685Z,21.90
2018-05-24T11:22:16.177Z,21.90
2018-05-24T11:24:43.657Z,21.90
2018-05-24T11:27:11.157Z,21.80
2018-05-24T11:29:38.640Z,21.70
2018-05-24T11:32:06.150Z,21.90
2018-05-24T11:34:33.685Z,22.00
2018-05-24T11:37:02.008Z,22.10
2018-05-24T11:39:29.467Z,22.10
2018-05-24T11:41:57.142Z,22.20
2018-05-24T11:44:24.640Z,22.40
2018-05-24T11:46:52.899Z,22.60
2018-05-24T11:49:21.152Z,22.80
2018-05-24T11:51:48.707Z,22.80
2018-05-24T11:54:16.903Z,23.10
2018-05-24T11:56:44.445Z,23.10
2018-05-24T11:59:11.947Z,23.10
2018-05-24T12:01:40.232Z,22.90
2018-05-24T12:04:07.859Z,22.90
2018-05-24T12:06:36.100Z,22.80
2018-05-24T12:09:03.593Z,22.80
2018-05-24T12:11:31.837Z,22.90
2018-05-24T12:13:59.331Z,22.80
2018-05-24T12:16:27.574Z,23.00
2018-05-24T12:18:55.087Z,23.00
2018-05-24T12:21:24.989Z,23.00
2018-05-24T12:23:53.521Z,22.90
2018-05-24T12:26:21.016Z,22.90
2018-05-24T12:28:49.311Z,23.00
2018-05-24T12:31:17.574Z,23.10
2018-05-24T12:33:45.861Z,23.50
2018-05-24T12:36:14.099Z,23.80
2018-05-24T12:38:41.644Z,23.80
2018-05-24T12:41:09.156Z,24.10
2018-05-24T12:43:36.804Z,24.50
2018-05-24T12:46:05.083Z,25.00
2018-05-24T12:48:33.362Z,25.30
2018-05-24T12:51:00.970Z,25.30
2018-05-24T12:53:28.433Z,25.30
2018-05-24T12:55:55.932Z,25.60
2018-05-24T12:58:24.168Z,26.10
2018-05-24T13:00:51.674Z,26.00
2018-05-24T13:03:19.170Z,25.70
2018-05-24T13:05:46.868Z,25.30
2018-05-24T13:08:14.353Z,25.10
2018-05-24T13:10:42.610Z,25.30
2018-05-24T13:13:10.868Z,25.00
2018-05-24T13:15:38.372Z,25.00
2018-05-24T13:18:05.841Z,24.80
2018-05-24T13:20:33.311Z,24.60
2018-05-24T13:23:00.798Z,24.30
2018-05-24T13:25:28.268Z,24.00
2018-05-24T13:27:56.536Z,24.10
2018-05-24T13:30:24.068Z,24.10
2018-05-24T13:32:51.543Z,24.20
2018-05-24T13:35:19.016Z,24.00
2018-05-24T13:37:46.502Z,23.70
2018-05-24T13:40:13.990Z,23.50
2018-05-24T13:42:41.473Z,23.60
2018-05-24T13:45:09.715Z,23.70
2018-05-24T13:47:37.192Z,23.70
2018-05-24T13:50:04.836Z,23.90
2018-05-24T13:52:32.439Z,24.10
2018-05-24T13:54:59.841Z,23.90
2018-05-24T13:57:39.184Z,23.70
2018-05-24T14:00:07.003Z,23.60
2018-05-24T14:02:35.279Z,23.60
2018-05-24T14:05:03.597Z,23.50
2018-05-24T14:07:31.062Z,23.50
2018-05-24T14:09:58.542Z,23.40
2018-05-24T14:12:26.027Z,23.30
2018-05-24T14:14:54.329Z,23.20
2018-05-24T14:17:21.853Z,23.20
2018-05-24T14:19:49.308Z,23.10
2018-05-24T14:22:16.885Z,23.00
2018-05-24T14:24:45.132Z,22.90
2018-05-24T14:27:12.599Z,22.90
2018-05-24T14:29:40.128Z,22.90
2018-05-24T14:32:07.976Z,22.80
2018-05-24T14:34:35.446Z,22.70
2018-05-24T14:37:02.937Z,22.60
2018-05-24T14:39:30.461Z,22.50
2018-05-24T14:41:57.929Z,22.40
2018-05-24T14:44:25.396Z,22.40
2018-05-24T14:46:52.876Z,22.30
2018-05-24T14:49:21.107Z,22.20
2018-05-24T14:51:48.584Z,22.20
2018-05-24T14:54:16.072Z,22.10
2018-05-24T14:56:44.556Z,21.00
2018-05-24T14:59:12.788Z,20.40
2018-05-24T15:01:40.272Z,20.40
2018-05-24T15:04:07.748Z,20.10
2018-05-24T15:06:36.027Z,19.90
2018-05-24T15:09:05.829Z,19.70
2018-05-24T15:11:34.100Z,19.50
2018-05-24T15:14:02.360Z,19.40
2018-05-24T15:16:29.861Z,19.40
2018-05-24T15:18:57.349Z,19.40
2018-05-24T15:21:24.847Z,19.30
2018-05-24T15:23:53.098Z,19.10
2018-05-24T15:26:20.580Z,19.10
2018-05-24T15:28:48.080Z,19.10
2018-05-24T15:31:15.552Z,19.20
2018-05-24T15:33:43.045Z,19.40
2018-05-24T15:36:10.767Z,19.50
2018-05-24T15:38:38.248Z,19.60
2018-05-24T15:41:05.769Z,19.70
2018-05-24T15:43:33.277Z,19.80
2018-05-24T15:46:00.748Z,19.80
2018-05-24T15:48:28.243Z,19.90
2018-05-24T15:50:55.727Z,19.90
2018-05-24T15:53:23.204Z,20.00
2018-05-24T15:55:50.695Z,20.00
2018-05-24T15:58:18.206Z,20.00
2018-05-24T16:00:45.686Z,20.20
2018-05-24T16:03:13.504Z,20.20
2018-05-24T16:05:41.010Z,20.20
2018-05-24T16:08:08.498Z,20.30
2018-05-24T16:10:36.749Z,20.30
2018-05-24T16:13:04.992Z,20.40
2018-05-24T16:15:32.556Z,20.40
2018-05-24T16:18:00.040Z,20.40
2018-05-24T16:20:27.521Z,20.50
2018-05-24T16:22:55.046Z,20.50
2018-05-24T16:25:24.045Z,20.70
2018-05-24T16:27:51.535Z,20.70
2018-05-24T16:30:19.811Z,20.70
2018-05-24T16:32:47.452Z,20.70
2018-05-24T16:35:15.824Z,20.80
2018-05-24T16:37:44.088Z,20.80
2018-05-24T16:40:11.567Z,20.70
2018-05-24T16:42:39.857Z,20.80
2018-05-24T16:45:07.353Z,20.80
2018-05-24T16:47:34.893Z,20.80
2018-05-24T16:50:02.540Z,20.80
2018-05-24T16:52:30.039Z,20.80
2018-05-24T16:54:57.509Z,20.80
2018-05-24T16:57:25.019Z,20.70
2018-05-24T16:59:52.498Z,20.70
2018-05-24T17:02:20.014Z,20.70
2018-05-24T17:04:48.256Z,20.70
2018-05-24T17:07:15.736Z,20.70
2018-05-24T17:09:44.015Z,20.80
2018-05-24T17:12:12.272Z,20.70
2018-05-24T17:14:40.555Z,20.70
2018-05-24T17:17:08.856Z,20.60
2018-05-24T17:19:37.090Z,20.60
2018-05-24T17:22:04.571Z,20.60
2018-05-24T17:24:33.063Z,20.50
2018-05-24T17:27:01.312Z,20.50
2018-05-24T17:29:29.804Z,20.50
2018-05-24T17:31:57.264Z,20.50
2018-05-24T17:34:25.537Z,20.50
2018-05-24T17:36:53.050Z,20.50
2018-05-24T17:39:20.899Z,20.50
2018-05-24T17:41:48.395Z,20.50
2018-05-24T17:44:15.898Z,20.40
2018-05-24T17:46:43.414Z,20.50
2018-05-24T17:49:10.905Z,20.40
2018-05-24T17:51:39.155Z,20.50
2018-05-24T17:54:06.644Z,20.50
2018-05-24T17:56:34.138Z,20.50
2018-05-24T17:59:01.648Z,20.50
2018-05-24T18:01:30.109Z,20.50
2018-05-24T18:03:57.596Z,20.50
2018-05-24T18:06:25.195Z,20.50
2018-05-24T18:08:52.943Z,20.50
2018-05-24T18:11:20.576Z,20.50
2018-05-24T18:13:48.230Z,20.50
2018-05-24T18:16:15.754Z,20.50
2018-05-24T18:18:43.259Z,20.50
2018-05-24T18:21:11.742Z,20.50
2018-05-24T18:23:39.435Z,20.50
2018-05-24T18:26:07.044Z,20.40
2018-05-24T18:28:35.338Z,20.40
2018-05-24T18:31:03.624Z,20.30
2018-05-24T18:33:31.165Z,20.30
2018-05-24T18:35:59.441Z,20.30
2018-05-24T18:38:27.951Z,20.30
2018-05-24T18:40:55.714Z,20.30
2018-05-24T18:43:23.396Z,20.20
2018-05-24T18:45:51.323Z,20.20
2018-05-24T18:48:19.603Z,20.20
2018-05-24T18:50:47.081Z,20.10
2018-05-24T18:53:18.898Z,20.20
2018-05-24T18:55:46.681Z,20.20
2018-05-24T18:58:14.591Z,20.20
2018-05-24T19:00:48.692Z,20.20
2018-05-24T19:03:18.006Z,20.10
2018-05-24T19:05:45.651Z,20.10
2018-05-24T19:08:13.235Z,20.10
2018-05-24T19:10:40.782Z,20.10
2018-05-24T19:13:08.280Z,20.10
2018-05-24T19:15:36.568Z,20.00
2018-05-24T19:18:04.808Z,19.90
2018-05-24T19:20:33.164Z,19.90
2018-05-24T19:23:00.692Z,19.90
2018-05-24T19:25:29.064Z,19.90
2018-05-24T19:28:01.692Z,19.90
2018-05-24T19:30:29.566Z,19.80
2018-05-24T19:32:57.411Z,19.80
2018-05-24T19:35:24.998Z,19.70
2018-05-24T19:37:52.731Z,19.70
2018-05-24T19:40:20.521Z,19.70
2018-05-24T19:42:48.860Z,19.60
2018-05-24T19:45:16.901Z,19.60
2018-05-24T19:47:45.021Z,19.60
2018-05-24T19:50:12.805Z,19.60
2018-05-24T19:52:41.099Z,19.60
2018-05-24T19:55:08.630Z,19.60
2018-05-24T19:57:36.107Z,19.60
2018-05-24T20:00:03.590Z,19.50
2018-05-24T20:02:31.861Z,19.50
2018-05-24T20:05:01.031Z,19.50
2018-05-24T20:07:28.552Z,19.50
2018-05-24T20:09:56.032Z,19.50
2018-05-24T20:12:23.518Z,19.40
2018-05-24T20:14:51.027Z,19.40
2018-05-24T20:17:18.522Z,19.40
2018-05-24T20:19:46.002Z,19.40
2018-05-24T20:22:14.263Z,19.30
2018-05-24T20:24:41.766Z,19.30
2018-05-24T20:27:09.263Z,19.40
2018-05-24T20:29:36.815Z,19.40
2018-05-24T20:32:04.301Z,19.40
2018-05-24T20:34:35.849Z,19.30
2018-05-24T20:37:03.377Z,19.30
2018-05-24T20:39:30.887Z,19.30
2018-05-24T20:41:59.137Z,19.40
2018-05-24T20:44:26.629Z,19.40
2018-05-24T20:46:54.098Z,19.30
2018-05-24T20:49:21.585Z,19.30
2018-05-24T20:51:49.045Z,19.30
2018-05-24T20:54:16.537Z,19.30
2018-05-24T20:56:44.797Z,19.40
2018-05-24T20:59:12.273Z,19.40
2018-05-24T21:01:40.543Z,19.30
2018-05-24T21:04:08.051Z,19.30
2018-05-24T21:06:35.533Z,19.30
2018-05-24T21:09:03.045Z,19.30
2018-05-24T21:11:30.521Z,19.30
2018-05-24T21:13:58.011Z,19.30
2018-05-24T21:16:26.308Z,19.20
2018-05-24T21:18:53.769Z,19.20
2018-05-24T21:21:22.628Z,19.20
2018-05-24T21:23:50.116Z,19.20
2018-05-24T21:26:18.388Z,19.10
2018-05-24T21:28:46.641Z,19.10
2018-05-24T21:31:14.136Z,19.10
2018-05-24T21:33:42.410Z,19.00
2018-05-24T21:36:10.753Z,19.00
2018-05-24T21:38:38.236Z,19.00
2018-05-24T21:41:06.524Z,18.80
2018-05-24T21:43:34.788Z,18.80
2018-05-24T21:46:03.040Z,18.70
2018-05-24T21:48:31.358Z,18.70
2018-05-24T21:50:58.853Z,18.70
2018-05-24T21:53:26.359Z,18.70
2018-05-24T21:55:54.608Z,18.70
2018-05-24T21:58:22.118Z,18.60
2018-05-24T22:00:51.278Z,18.70
2018-05-24T22:03:18.768Z,18.70
2018-05-24T22:05:46.252Z,18.60
2018-05-24T22:08:13.742Z,18.60
2018-05-24T22:10:41.237Z,18.60
2018-05-24T22:13:08.739Z,18.60
2018-05-24T22:15:36.242Z,18.60
2018-05-24T22:18:04.523Z,18.70
2018-05-24T22:20:32.009Z,18.60
2018-05-24T22:22:59.516Z,18.70
2018-05-24T22:25:27.760Z,18.50
2018-05-24T22:27:55.259Z,18.50
2018-05-24T22:30:23.500Z,18.50
2018-05-24T22:32:51.010Z,18.50
2018-05-24T22:35:18.502Z,18.50
2018-05-24T22:37:45.967Z,18.50
2018-05-24T22:40:13.460Z,18.50
2018-05-24T22:42:40.987Z,18.50
2018-05-24T22:45:08.462Z,18.50
2018-05-24T22:47:35.928Z,18.50
2018-05-24T22:50:04.241Z,18.50
2018-05-24T22:52:31.720Z,18.50
2018-05-24T22:54:59.193Z,18.50
2018-05-24T22:57:26.668Z,18.50
2018-05-24T22:59:54.923Z,18.40
2018-05-24T23:02:22.390Z,18.40
2018-05-24T23:04:49.872Z,18.30
2018-05-24T23:07:18.120Z,18.20
2018-05-24T23:09:45.663Z,18.20
2018-05-24T23:12:13.156Z,18.20
2018-05-24T23:14:40.642Z,18.10
2018-05-24T23:17:08.115Z,18.10
2018-05-24T23:19:35.588Z,18.10
2018-05-24T23:22:03.065Z,18.10
2018-05-24T23:24:30.532Z,18.00
2018-05-24T23:26:59.723Z,18.00
2018-05-24T23:29:27.200Z,18.00
2018-05-24T23:31:55.457Z,18.00
2018-05-24T23:34:23.708Z,18.10
2018-05-24T23:36:51.204Z,18.00
2018-05-24T23:39:19.452Z,18.10
2018-05-24T23:41:46.925Z,18.10
2018-05-24T23:44:14.411Z,18.10
2018-05-24T23:46:42.668Z,17.90
2018-05-24T23:49:10.141Z,17.90
2018-05-24T23:51:38.377Z,17.90
2018-05-24T23:54:05.845Z,17.80
2018-05-24T23:56:33.322Z,17.90
2018-05-24T23:59:01.578Z,17.70
